sensor_id;sensor_type;location;lat;lon;timestamp;P1;durP1;ratioP1;P2;durP2;ratioP2
17925;SDS011;9088;55.674;13.354;2023-05-09T00:01:28;0.30;;;0.30;;
17925;SDS011;9088;55.674;13.354;2023-05-09T00:03:55;0.30;;;0.30;;
17925;SDS011;9088;55.674;13.354;2023-05-09T00:06:23;0.30;;;0.30;;
17925;SDS011;9088;55.674;13.354;2023-05-09T00:08:51;0.30;;;0.30;;
17925;SDS011;9088;55.674;13.354;2023-05-09T00:11:18;0.30;;;0.30;;
17925;SDS011;9088;55.674;13.354;2023-05-09T00:13:47;0.30;;;0.30;;
17925;SDS011;9088;55.674;13.354;2023-05-09T00:16:14;0.30;;;0.30;;
17925;SDS011;9088;55.674;13.354;2023-05-09T00:18:41;0.30;;;0.30;;
17925;SDS011;9088;55.674;13.354;2023-05-09T00:21:08;0.30;;;0.30;;
17925;SDS011;9088;55.674;13.354;2023-05-09T00:23:36;0.30;;;0.30;;
17925;SDS011;9088;55.674;13.354;2023-05-09T00:26:03;0.30;;;0.30;;
17925;SDS011;9088;55.674;13.354;2023-05-09T00:28:30;0.30;;;0.30;;
17925;SDS011;9088;55.674;13.354;2023-05-09T00:30:58;0.30;;;0.30;;
17925;SDS011;9088;55.674;13.354;2023-05-09T00:33:25;0.30;;;0.30;;
17925;SDS011;9088;55.674;13.354;2023-05-09T00:35:52;0.30;;;0.30;;
17925;SDS011;9088;55.674;13.354;2023-05-09T00:38:19;0.30;;;0.30;;
17925;SDS011;9088;55.674;13.354;2023-05-09T00:40:46;0.30;;;0.30;;
17925;SDS011;9088;55.674;13.354;2023-05-09T00:43:13;0.30;;;0.30;;
17925;SDS011;9088;55.674;13.354;2023-05-09T00:45:41;0.30;;;0.30;;
17925;SDS011;9088;55.674;13.354;2023-05-09T00:48:10;0.30;;;0.30;;
17925;SDS011;9088;55.674;13.354;2023-05-09T00:50:37;0.40;;;0.40;;
17925;SDS011;9088;55.674;13.354;2023-05-09T00:53:05;0.40;;;0.40;;
17925;SDS011;9088;55.674;13.354;2023-05-09T00:55:32;0.40;;;0.40;;
17925;SDS011;9088;55.674;13.354;2023-05-09T00:57:59;0.40;;;0.40;;
17925;SDS011;9088;55.674;13.354;2023-05-09T01:00:27;0.40;;;0.40;;
17925;SDS011;9088;55.674;13.354;2023-05-09T01:02:54;0.40;;;0.40;;
17925;SDS011;9088;55.674;13.354;2023-05-09T01:05:23;0.40;;;0.40;;
17925;SDS011;9088;55.674;13.354;2023-05-09T01:07:51;0.40;;;0.40;;
17925;SDS011;9088;55.674;13.354;2023-05-09T01:10:22;0.40;;;0.40;;
17925;SDS011;9088;55.674;13.354;2023-05-09T01:12:53;0.40;;;0.40;;
17925;SDS011;9088;55.674;13.354;2023-05-09T01:15:23;0.40;;;0.40;;
17925;SDS011;9088;55.674;13.354;2023-05-09T01:17:52;0.40;;;0.40;;
17925;SDS011;9088;55.674;13.354;2023-05-09T01:20:21;0.40;;;0.40;;
17925;SDS011;9088;55.674;13.354;2023-05-09T01:22:54;0.40;;;0.40;;
17925;SDS011;9088;55.674;13.354;2023-05-09T01:28:11;0.40;;;0.40;;
17925;SDS011;9088;55.674;13.354;2023-05-09T01:30:40;0.40;;;0.40;;
17925;SDS011;9088;55.674;13.354;2023-05-09T01:33:08;0.40;;;0.40;;
17925;SDS011;9088;55.674;13.354;2023-05-09T01:35:36;0.40;;;0.40;;
17925;SDS011;9088;55.674;13.354;2023-05-09T01:38:06;0.40;;;0.40;;
17925;SDS011;9088;55.674;13.354;2023-05-09T01:40:36;0.40;;;0.40;;
17925;SDS011;9088;55.674;13.354;2023-05-09T01:43:05;0.40;;;0.40;;
17925;SDS011;9088;55.674;13.354;2023-05-09T01:45:33;0.40;;;0.40;;
17925;SDS011;9088;55.674;13.354;2023-05-09T01:48:04;0.40;;;0.40;;
17925;SDS011;9088;55.674;13.354;2023-05-09T01:50:32;0.40;;;0.40;;
17925;SDS011;9088;55.674;13.354;2023-05-09T01:53:01;0.40;;;0.40;;
17925;SDS011;9088;55.674;13.354;2023-05-09T01:55:29;0.50;;;0.50;;
17925;SDS011;9088;55.674;13.354;2023-05-09T01:57:57;0.40;;;0.40;;
17925;SDS011;9088;55.674;13.354;2023-05-09T02:00:25;0.50;;;0.50;;
17925;SDS011;9088;55.674;13.354;2023-05-09T02:02:52;0.50;;;0.50;;
17925;SDS011;9088;55.674;13.354;2023-05-09T02:05:21;0.40;;;0.40;;
17925;SDS011;9088;55.674;13.354;2023-05-09T02:07:49;0.50;;;0.50;;
17925;SDS011;9088;55.674;13.354;2023-05-09T02:10:17;0.50;;;0.50;;
17925;SDS011;9088;55.674;13.354;2023-05-09T02:12:45;0.50;;;0.50;;
17925;SDS011;9088;55.674;13.354;2023-05-09T02:15:12;0.50;;;0.50;;
17925;SDS011;9088;55.674;13.354;2023-05-09T02:17:39;0.40;;;0.40;;
17925;SDS011;9088;55.674;13.354;2023-05-09T02:20:07;0.50;;;0.50;;
17925;SDS011;9088;55.674;13.354;2023-05-09T02:22:36;0.50;;;0.50;;
17925;SDS011;9088;55.674;13.354;2023-05-09T02:25:05;0.50;;;0.50;;
17925;SDS011;9088;55.674;13.354;2023-05-09T02:27:33;0.60;;;0.60;;
17925;SDS011;9088;55.674;13.354;2023-05-09T02:30:02;0.50;;;0.50;;
17925;SDS011;9088;55.674;13.354;2023-05-09T02:32:31;0.50;;;0.50;;
17925;SDS011;9088;55.674;13.354;2023-05-09T02:35:00;0.50;;;0.50;;
17925;SDS011;9088;55.674;13.354;2023-05-09T02:37:28;0.50;;;0.50;;
17925;SDS011;9088;55.674;13.354;2023-05-09T02:39:56;0.50;;;0.50;;
17925;SDS011;9088;55.674;13.354;2023-05-09T02:42:24;0.50;;;0.50;;
17925;SDS011;9088;55.674;13.354;2023-05-09T02:44:54;0.50;;;0.50;;
17925;SDS011;9088;55.674;13.354;2023-05-09T02:47:21;0.60;;;0.60;;
17925;SDS011;9088;55.674;13.354;2023-05-09T02:49:48;0.60;;;0.60;;
17925;SDS011;9088;55.674;13.354;2023-05-09T02:52:15;0.60;;;0.60;;
17925;SDS011;9088;55.674;13.354;2023-05-09T02:54:42;0.60;;;0.60;;
17925;SDS011;9088;55.674;13.354;2023-05-09T02:57:11;0.60;;;0.60;;
17925;SDS011;9088;55.674;13.354;2023-05-09T02:59:38;0.60;;;0.60;;
17925;SDS011;9088;55.674;13.354;2023-05-09T03:02:05;0.60;;;0.60;;
17925;SDS011;9088;55.674;13.354;2023-05-09T03:04:32;0.60;;;0.60;;
17925;SDS011;9088;55.674;13.354;2023-05-09T03:06:59;0.60;;;0.60;;
17925;SDS011;9088;55.674;13.354;2023-05-09T03:09:26;0.60;;;0.60;;
17925;SDS011;9088;55.674;13.354;2023-05-09T03:11:53;0.60;;;0.60;;
17925;SDS011;9088;55.674;13.354;2023-05-09T03:14:22;0.60;;;0.60;;
17925;SDS011;9088;55.674;13.354;2023-05-09T03:16:50;0.60;;;0.60;;
17925;SDS011;9088;55.674;13.354;2023-05-09T03:19:17;0.60;;;0.60;;
17925;SDS011;9088;55.674;13.354;2023-05-09T03:21:44;0.70;;;0.70;;
17925;SDS011;9088;55.674;13.354;2023-05-09T03:24:11;0.70;;;0.70;;
17925;SDS011;9088;55.674;13.354;2023-05-09T03:29:14;2.40;;;2.30;;
17925;SDS011;9088;55.674;13.354;2023-05-09T03:31:42;2.30;;;2.20;;
17925;SDS011;9088;55.674;13.354;2023-05-09T03:34:10;2.50;;;2.40;;
17925;SDS011;9088;55.674;13.354;2023-05-09T03:36:39;2.47;;;2.37;;
17925;SDS011;9088;55.674;13.354;2023-05-09T03:39:06;2.50;;;2.40;;
17925;SDS011;9088;55.674;13.354;2023-05-09T03:41:34;2.30;;;2.20;;
17925;SDS011;9088;55.674;13.354;2023-05-09T03:44:01;2.40;;;2.30;;
17925;SDS011;9088;55.674;13.354;2023-05-09T03:46:28;2.43;;;2.33;;
17925;SDS011;9088;55.674;13.354;2023-05-09T03:48:56;2.50;;;2.40;;
17925;SDS011;9088;55.674;13.354;2023-05-09T03:51:23;2.30;;;2.20;;
17925;SDS011;9088;55.674;13.354;2023-05-09T03:53:50;2.30;;;2.20;;
17925;SDS011;9088;55.674;13.354;2023-05-09T03:56:17;2.40;;;2.30;;
17925;SDS011;9088;55.674;13.354;2023-05-09T03:58:44;2.40;;;2.30;;
17925;SDS011;9088;55.674;13.354;2023-05-09T04:01:11;2.30;;;2.20;;
17925;SDS011;9088;55.674;13.354;2023-05-09T04:03:38;2.20;;;2.10;;
17925;SDS011;9088;55.674;13.354;2023-05-09T04:06:07;2.20;;;2.10;;
17925;SDS011;9088;55.674;13.354;2023-05-09T04:08:34;2.20;;;2.10;;
17925;SDS011;9088;55.674;13.354;2023-05-09T04:11:01;2.10;;;2.00;;
17925;SDS011;9088;55.674;13.354;2023-05-09T04:13:29;2.20;;;2.10;;
17925;SDS011;9088;55.674;13.354;2023-05-09T04:15:57;2.20;;;2.10;;
17925;SDS011;9088;55.674;13.354;2023-05-09T04:18:24;2.20;;;2.10;;
17925;SDS011;9088;55.674;13.354;2023-05-09T04:20:51;2.10;;;2.00;;
17925;SDS011;9088;55.674;13.354;2023-05-09T04:23:19;2.10;;;2.00;;
17925;SDS011;9088;55.674;13.354;2023-05-09T04:25:46;2.10;;;2.00;;
17925;SDS011;9088;55.674;13.354;2023-05-09T04:28:15;1.80;;;1.80;;
17925;SDS011;9088;55.674;13.354;2023-05-09T04:30:42;1.80;;;1.80;;
17925;SDS011;9088;55.674;13.354;2023-05-09T04:33:09;1.80;;;1.80;;
17925;SDS011;9088;55.674;13.354;2023-05-09T04:35:37;2.00;;;1.90;;
17925;SDS011;9088;55.674;13.354;2023-05-09T04:38:05;2.10;;;2.00;;
17925;SDS011;9088;55.674;13.354;2023-05-09T04:40:33;1.90;;;1.90;;
17925;SDS011;9088;55.674;13.354;2023-05-09T04:43:00;1.80;;;1.80;;
17925;SDS011;9088;55.674;13.354;2023-05-09T04:45:28;1.90;;;1.90;;
17925;SDS011;9088;55.674;13.354;2023-05-09T04:47:55;2.00;;;1.90;;
17925;SDS011;9088;55.674;13.354;2023-05-09T04:50:22;1.90;;;1.90;;
17925;SDS011;9088;55.674;13.354;2023-05-09T04:52:49;2.00;;;1.90;;
17925;SDS011;9088;55.674;13.354;2023-05-09T04:55:16;1.80;;;1.80;;
17925;SDS011;9088;55.674;13.354;2023-05-09T04:57:45;1.67;;;1.67;;
17925;SDS011;9088;55.674;13.354;2023-05-09T05:00:12;1.70;;;1.70;;
17925;SDS011;9088;55.674;13.354;2023-05-09T05:02:40;1.70;;;1.70;;
17925;SDS011;9088;55.674;13.354;2023-05-09T05:05:07;1.70;;;1.70;;
17925;SDS011;9088;55.674;13.354;2023-05-09T05:07:34;1.60;;;1.60;;
17925;SDS011;9088;55.674;13.354;2023-05-09T05:10:01;1.70;;;1.70;;
17925;SDS011;9088;55.674;13.354;2023-05-09T05:12:30;1.70;;;1.70;;
17925;SDS011;9088;55.674;13.354;2023-05-09T05:14:58;1.63;;;1.63;;
17925;SDS011;9088;55.674;13.354;2023-05-09T05:17:25;1.60;;;1.60;;
17925;SDS011;9088;55.674;13.354;2023-05-09T05:19:53;1.60;;;1.60;;
17925;SDS011;9088;55.674;13.354;2023-05-09T05:22:20;1.60;;;1.60;;
17925;SDS011;9088;55.674;13.354;2023-05-09T05:24:48;1.70;;;1.70;;
17925;SDS011;9088;55.674;13.354;2023-05-09T05:27:15;1.60;;;1.60;;
17925;SDS011;9088;55.674;13.354;2023-05-09T05:29:42;1.63;;;1.63;;
17925;SDS011;9088;55.674;13.354;2023-05-09T05:32:10;1.70;;;1.70;;
17925;SDS011;9088;55.674;13.354;2023-05-09T05:34:38;1.70;;;1.70;;
17925;SDS011;9088;55.674;13.354;2023-05-09T05:37:05;1.77;;;1.77;;
17925;SDS011;9088;55.674;13.354;2023-05-09T05:39:32;1.70;;;1.70;;
17925;SDS011;9088;55.674;13.354;2023-05-09T05:41:59;1.70;;;1.70;;
17925;SDS011;9088;55.674;13.354;2023-05-09T05:44:26;1.67;;;1.67;;
17925;SDS011;9088;55.674;13.354;2023-05-09T05:46:53;1.70;;;1.70;;
17925;SDS011;9088;55.674;13.354;2023-05-09T05:49:21;1.70;;;1.70;;
17925;SDS011;9088;55.674;13.354;2023-05-09T05:51:49;1.60;;;1.60;;
17925;SDS011;9088;55.674;13.354;2023-05-09T05:54:16;1.70;;;1.70;;
17925;SDS011;9088;55.674;13.354;2023-05-09T05:56:43;1.80;;;1.80;;
17925;SDS011;9088;55.674;13.354;2023-05-09T05:59:11;1.80;;;1.80;;
17925;SDS011;9088;55.674;13.354;2023-05-09T06:01:38;1.80;;;1.80;;
17925;SDS011;9088;55.674;13.354;2023-05-09T06:04:05;1.80;;;1.80;;
17925;SDS011;9088;55.674;13.354;2023-05-09T06:06:39;1.60;;;1.60;;
17925;SDS011;9088;55.674;13.354;2023-05-09T06:09:06;1.50;;;1.50;;
17925;SDS011;9088;55.674;13.354;2023-05-09T06:11:33;1.70;;;1.70;;
17925;SDS011;9088;55.674;13.354;2023-05-09T06:14:00;1.83;;;1.83;;
17925;SDS011;9088;55.674;13.354;2023-05-09T06:16:27;1.77;;;1.77;;
17925;SDS011;9088;55.674;13.354;2023-05-09T06:18:54;1.70;;;1.70;;
17925;SDS011;9088;55.674;13.354;2023-05-09T06:21:21;1.80;;;1.80;;
17925;SDS011;9088;55.674;13.354;2023-05-09T06:23:49;2.03;;;1.93;;
17925;SDS011;9088;55.674;13.354;2023-05-09T06:26:16;2.00;;;1.90;;
17925;SDS011;9088;55.674;13.354;2023-05-09T06:28:43;1.90;;;1.90;;
17925;SDS011;9088;55.674;13.354;2023-05-09T06:31:10;1.80;;;1.80;;
17925;SDS011;9088;55.674;13.354;2023-05-09T06:33:37;1.90;;;1.90;;
17925;SDS011;9088;55.674;13.354;2023-05-09T06:36:04;1.80;;;1.80;;
17925;SDS011;9088;55.674;13.354;2023-05-09T06:38:32;1.80;;;1.80;;
17925;SDS011;9088;55.674;13.354;2023-05-09T06:41:01;1.80;;;1.80;;
17925;SDS011;9088;55.674;13.354;2023-05-09T06:43:28;1.80;;;1.80;;
17925;SDS011;9088;55.674;13.354;2023-05-09T06:45:55;1.70;;;1.70;;
17925;SDS011;9088;55.674;13.354;2023-05-09T06:48:22;1.90;;;1.90;;
17925;SDS011;9088;55.674;13.354;2023-05-09T06:50:49;1.80;;;1.80;;
17925;SDS011;9088;55.674;13.354;2023-05-09T06:53:16;1.63;;;1.63;;
17925;SDS011;9088;55.674;13.354;2023-05-09T06:55:43;1.90;;;1.90;;
17925;SDS011;9088;55.674;13.354;2023-05-09T06:58:11;1.80;;;1.80;;
17925;SDS011;9088;55.674;13.354;2023-05-09T07:00:39;1.67;;;1.67;;
17925;SDS011;9088;55.674;13.354;2023-05-09T07:03:06;1.60;;;1.60;;
17925;SDS011;9088;55.674;13.354;2023-05-09T07:05:33;1.80;;;1.80;;
17925;SDS011;9088;55.674;13.354;2023-05-09T07:08:00;1.70;;;1.70;;
17925;SDS011;9088;55.674;13.354;2023-05-09T07:10:28;1.70;;;1.70;;
17925;SDS011;9088;55.674;13.354;2023-05-09T07:12:55;1.60;;;1.60;;
17925;SDS011;9088;55.674;13.354;2023-05-09T07:15:23;1.50;;;1.50;;
17925;SDS011;9088;55.674;13.354;2023-05-09T07:17:50;1.50;;;1.50;;
17925;SDS011;9088;55.674;13.354;2023-05-09T07:20:17;1.70;;;1.70;;
17925;SDS011;9088;55.674;13.354;2023-05-09T07:22:44;1.60;;;1.60;;
17925;SDS011;9088;55.674;13.354;2023-05-09T07:25:11;1.63;;;1.63;;
17925;SDS011;9088;55.674;13.354;2023-05-09T07:27:38;1.60;;;1.60;;
17925;SDS011;9088;55.674;13.354;2023-05-09T07:30:05;1.60;;;1.60;;
17925;SDS011;9088;55.674;13.354;2023-05-09T07:32:34;1.70;;;1.70;;
17925;SDS011;9088;55.674;13.354;2023-05-09T07:35:01;1.70;;;1.70;;
17925;SDS011;9088;55.674;13.354;2023-05-09T07:37:28;1.57;;;1.57;;
17925;SDS011;9088;55.674;13.354;2023-05-09T07:39:55;1.60;;;1.60;;
17925;SDS011;9088;55.674;13.354;2023-05-09T07:42:22;1.63;;;1.63;;
17925;SDS011;9088;55.674;13.354;2023-05-09T07:44:50;1.70;;;1.70;;
17925;SDS011;9088;55.674;13.354;2023-05-09T07:47:17;1.67;;;1.67;;
17925;SDS011;9088;55.674;13.354;2023-05-09T07:49:45;1.70;;;1.70;;
17925;SDS011;9088;55.674;13.354;2023-05-09T07:52:12;1.60;;;1.60;;
17925;SDS011;9088;55.674;13.354;2023-05-09T07:54:41;1.60;;;1.60;;
17925;SDS011;9088;55.674;13.354;2023-05-09T07:57:08;1.50;;;1.50;;
17925;SDS011;9088;55.674;13.354;2023-05-09T07:59:35;1.70;;;1.70;;
17925;SDS011;9088;55.674;13.354;2023-05-09T08:02:02;1.50;;;1.50;;
17925;SDS011;9088;55.674;13.354;2023-05-09T08:04:29;1.70;;;1.70;;
17925;SDS011;9088;55.674;13.354;2023-05-09T08:06:58;1.60;;;1.60;;
17925;SDS011;9088;55.674;13.354;2023-05-09T08:09:28;1.60;;;1.60;;
17925;SDS011;9088;55.674;13.354;2023-05-09T08:11:55;1.67;;;1.67;;
17925;SDS011;9088;55.674;13.354;2023-05-09T08:14:22;1.60;;;1.60;;
17925;SDS011;9088;55.674;13.354;2023-05-09T08:16:49;1.60;;;1.60;;
17925;SDS011;9088;55.674;13.354;2023-05-09T08:19:16;1.60;;;1.60;;
17925;SDS011;9088;55.674;13.354;2023-05-09T08:21:45;1.50;;;1.50;;
17925;SDS011;9088;55.674;13.354;2023-05-09T08:24:13;1.67;;;1.67;;
17925;SDS011;9088;55.674;13.354;2023-05-09T08:26:40;1.60;;;1.60;;
17925;SDS011;9088;55.674;13.354;2023-05-09T08:29:08;1.50;;;1.50;;
17925;SDS011;9088;55.674;13.354;2023-05-09T08:31:35;1.53;;;1.53;;
17925;SDS011;9088;55.674;13.354;2023-05-09T08:34:02;1.60;;;1.60;;
17925;SDS011;9088;55.674;13.354;2023-05-09T08:36:29;1.70;;;1.70;;
17925;SDS011;9088;55.674;13.354;2023-05-09T08:38:56;1.70;;;1.70;;
17925;SDS011;9088;55.674;13.354;2023-05-09T08:41:25;1.80;;;1.80;;
17925;SDS011;9088;55.674;13.354;2023-05-09T08:43:52;1.57;;;1.57;;
17925;SDS011;9088;55.674;13.354;2023-05-09T08:46:21;1.60;;;1.60;;
17925;SDS011;9088;55.674;13.354;2023-05-09T08:48:50;1.70;;;1.70;;
17925;SDS011;9088;55.674;13.354;2023-05-09T08:51:18;1.70;;;1.70;;
17925;SDS011;9088;55.674;13.354;2023-05-09T08:53:45;1.63;;;1.63;;
17925;SDS011;9088;55.674;13.354;2023-05-09T08:56:12;1.53;;;1.53;;
17925;SDS011;9088;55.674;13.354;2023-05-09T08:58:41;1.73;;;1.73;;
17925;SDS011;9088;55.674;13.354;2023-05-09T09:01:08;1.63;;;1.63;;
17925;SDS011;9088;55.674;13.354;2023-05-09T09:03:37;1.60;;;1.60;;
17925;SDS011;9088;55.674;13.354;2023-05-09T09:06:09;1.60;;;1.60;;
17925;SDS011;9088;55.674;13.354;2023-05-09T09:08:37;1.60;;;1.60;;
17925;SDS011;9088;55.674;13.354;2023-05-09T09:11:04;1.50;;;1.50;;
17925;SDS011;9088;55.674;13.354;2023-05-09T09:13:31;1.97;;;1.90;;
17925;SDS011;9088;55.674;13.354;2023-05-09T09:16:03;1.60;;;1.60;;
17925;SDS011;9088;55.674;13.354;2023-05-09T09:18:30;1.53;;;1.53;;
17925;SDS011;9088;55.674;13.354;2023-05-09T09:20:58;1.40;;;1.40;;
17925;SDS011;9088;55.674;13.354;2023-05-09T09:23:28;1.53;;;1.53;;
17925;SDS011;9088;55.674;13.354;2023-05-09T09:26:02;1.57;;;1.57;;
17925;SDS011;9088;55.674;13.354;2023-05-09T09:28:32;1.60;;;1.60;;
17925;SDS011;9088;55.674;13.354;2023-05-09T09:30:59;1.50;;;1.50;;
17925;SDS011;9088;55.674;13.354;2023-05-09T09:33:28;1.50;;;1.50;;
17925;SDS011;9088;55.674;13.354;2023-05-09T09:35:55;1.50;;;1.50;;
17925;SDS011;9088;55.674;13.354;2023-05-09T09:38:23;1.67;;;1.67;;
17925;SDS011;9088;55.674;13.354;2023-05-09T09:40:53;1.60;;;1.60;;
17925;SDS011;9088;55.674;13.354;2023-05-09T09:43:25;1.50;;;1.50;;
17925;SDS011;9088;55.674;13.354;2023-05-09T09:45:52;1.63;;;1.63;;
17925;SDS011;9088;55.674;13.354;2023-05-09T09:48:22;1.70;;;1.70;;
17925;SDS011;9088;55.674;13.354;2023-05-09T09:50:52;1.40;;;1.40;;
17925;SDS011;9088;55.674;13.354;2023-05-09T09:53:19;1.50;;;1.50;;
17925;SDS011;9088;55.674;13.354;2023-05-09T09:55:50;1.50;;;1.50;;
17925;SDS011;9088;55.674;13.354;2023-05-09T09:58:18;1.40;;;1.40;;
17925;SDS011;9088;55.674;13.354;2023-05-09T10:00:46;1.50;;;1.50;;
17925;SDS011;9088;55.674;13.354;2023-05-09T10:03:14;1.50;;;1.50;;
17925;SDS011;9088;55.674;13.354;2023-05-09T10:05:41;1.50;;;1.50;;
17925;SDS011;9088;55.674;13.354;2023-05-09T10:08:10;1.60;;;1.60;;
17925;SDS011;9088;55.674;13.354;2023-05-09T10:10:37;1.50;;;1.50;;
17925;SDS011;9088;55.674;13.354;2023-05-09T10:13:10;1.60;;;1.60;;
17925;SDS011;9088;55.674;13.354;2023-05-09T10:15:37;1.70;;;1.70;;
17925;SDS011;9088;55.674;13.354;2023-05-09T10:18:04;1.60;;;1.60;;
17925;SDS011;9088;55.674;13.354;2023-05-09T10:20:32;1.50;;;1.50;;
17925;SDS011;9088;55.674;13.354;2023-05-09T10:23:00;1.70;;;1.70;;
17925;SDS011;9088;55.674;13.354;2023-05-09T10:25:31;1.60;;;1.60;;
17925;SDS011;9088;55.674;13.354;2023-05-09T10:27:59;1.60;;;1.60;;
17925;SDS011;9088;55.674;13.354;2023-05-09T10:30:27;1.63;;;1.63;;
17925;SDS011;9088;55.674;13.354;2023-05-09T10:32:57;1.60;;;1.60;;
17925;SDS011;9088;55.674;13.354;2023-05-09T10:35:27;1.70;;;1.70;;
17925;SDS011;9088;55.674;13.354;2023-05-09T10:37:55;1.60;;;1.60;;
17925;SDS011;9088;55.674;13.354;2023-05-09T10:40:23;1.60;;;1.60;;
17925;SDS011;9088;55.674;13.354;2023-05-09T10:42:52;1.60;;;1.60;;
17925;SDS011;9088;55.674;13.354;2023-05-09T10:45:19;1.40;;;1.40;;
17925;SDS011;9088;55.674;13.354;2023-05-09T10:47:47;1.53;;;1.53;;
17925;SDS011;9088;55.674;13.354;2023-05-09T10:50:15;1.50;;;1.50;;
17925;SDS011;9088;55.674;13.354;2023-05-09T10:55:34;1.60;;;1.60;;
17925;SDS011;9088;55.674;13.354;2023-05-09T10:58:07;1.43;;;1.43;;
17925;SDS011;9088;55.674;13.354;2023-05-09T11:00:43;1.60;;;1.60;;
17925;SDS011;9088;55.674;13.354;2023-05-09T11:03:11;1.60;;;1.60;;
17925;SDS011;9088;55.674;13.354;2023-05-09T11:05:38;1.50;;;1.50;;
17925;SDS011;9088;55.674;13.354;2023-05-09T11:08:21;1.40;;;1.40;;
17925;SDS011;9088;55.674;13.354;2023-05-09T11:10:49;1.53;;;1.53;;
17925;SDS011;9088;55.674;13.354;2023-05-09T11:13:19;1.50;;;1.50;;
17925;SDS011;9088;55.674;13.354;2023-05-09T11:16:02;1.40;;;1.40;;
17925;SDS011;9088;55.674;13.354;2023-05-09T11:18:29;1.50;;;1.50;;
17925;SDS011;9088;55.674;13.354;2023-05-09T11:20:57;1.70;;;1.70;;
17925;SDS011;9088;55.674;13.354;2023-05-09T11:23:24;1.60;;;1.60;;
17925;SDS011;9088;55.674;13.354;2023-05-09T11:25:52;1.50;;;1.50;;
17925;SDS011;9088;55.674;13.354;2023-05-09T11:28:26;1.50;;;1.50;;
17925;SDS011;9088;55.674;13.354;2023-05-09T11:30:53;1.60;;;1.60;;
17925;SDS011;9088;55.674;13.354;2023-05-09T11:33:34;1.30;;;1.30;;
17925;SDS011;9088;55.674;13.354;2023-05-09T11:36:17;1.57;;;1.57;;
17925;SDS011;9088;55.674;13.354;2023-05-09T11:38:51;1.60;;;1.60;;
17925;SDS011;9088;55.674;13.354;2023-05-09T11:41:25;1.50;;;1.50;;
17925;SDS011;9088;55.674;13.354;2023-05-09T11:43:54;1.57;;;1.57;;
17925;SDS011;9088;55.674;13.354;2023-05-09T11:46:23;1.60;;;1.60;;
17925;SDS011;9088;55.674;13.354;2023-05-09T11:48:50;1.70;;;1.70;;
17925;SDS011;9088;55.674;13.354;2023-05-09T11:51:17;1.60;;;1.60;;
17925;SDS011;9088;55.674;13.354;2023-05-09T11:53:45;1.70;;;1.70;;
17925;SDS011;9088;55.674;13.354;2023-05-09T11:56:15;1.60;;;1.60;;
17925;SDS011;9088;55.674;13.354;2023-05-09T11:58:43;1.50;;;1.50;;
17925;SDS011;9088;55.674;13.354;2023-05-09T12:01:12;1.57;;;1.57;;
17925;SDS011;9088;55.674;13.354;2023-05-09T12:03:41;1.70;;;1.70;;
17925;SDS011;9088;55.674;13.354;2023-05-09T12:06:08;1.60;;;1.60;;
17925;SDS011;9088;55.674;13.354;2023-05-09T12:08:35;1.50;;;1.50;;
17925;SDS011;9088;55.674;13.354;2023-05-09T12:11:06;1.70;;;1.70;;
17925;SDS011;9088;55.674;13.354;2023-05-09T12:13:33;1.50;;;1.50;;
17925;SDS011;9088;55.674;13.354;2023-05-09T12:16:00;1.70;;;1.70;;
17925;SDS011;9088;55.674;13.354;2023-05-09T12:18:29;1.70;;;1.70;;
17925;SDS011;9088;55.674;13.354;2023-05-09T12:20:56;1.60;;;1.60;;
17925;SDS011;9088;55.674;13.354;2023-05-09T12:23:23;1.73;;;1.73;;
17925;SDS011;9088;55.674;13.354;2023-05-09T12:25:51;1.60;;;1.60;;
17925;SDS011;9088;55.674;13.354;2023-05-09T12:28:19;1.60;;;1.60;;
17925;SDS011;9088;55.674;13.354;2023-05-09T12:30:46;1.60;;;1.60;;
17925;SDS011;9088;55.674;13.354;2023-05-09T12:33:14;1.80;;;1.80;;
17925;SDS011;9088;55.674;13.354;2023-05-09T12:35:45;2.10;;;2.00;;
17925;SDS011;9088;55.674;13.354;2023-05-09T12:38:13;1.60;;;1.60;;
17925;SDS011;9088;55.674;13.354;2023-05-09T12:40:40;1.60;;;1.60;;
17925;SDS011;9088;55.674;13.354;2023-05-09T12:43:08;1.50;;;1.50;;
17925;SDS011;9088;55.674;13.354;2023-05-09T12:45:37;1.60;;;1.60;;
17925;SDS011;9088;55.674;13.354;2023-05-09T12:48:06;1.70;;;1.70;;
17925;SDS011;9088;55.674;13.354;2023-05-09T12:50:35;1.60;;;1.60;;
17925;SDS011;9088;55.674;13.354;2023-05-09T12:53:04;1.60;;;1.60;;
17925;SDS011;9088;55.674;13.354;2023-05-09T12:55:37;1.60;;;1.60;;
17925;SDS011;9088;55.674;13.354;2023-05-09T12:58:04;1.60;;;1.60;;
17925;SDS011;9088;55.674;13.354;2023-05-09T13:00:40;1.60;;;1.60;;
17925;SDS011;9088;55.674;13.354;2023-05-09T13:03:18;1.67;;;1.67;;
17925;SDS011;9088;55.674;13.354;2023-05-09T13:05:52;1.70;;;1.70;;
17925;SDS011;9088;55.674;13.354;2023-05-09T13:08:21;1.53;;;1.53;;
17925;SDS011;9088;55.674;13.354;2023-05-09T13:10:48;1.60;;;1.60;;
17925;SDS011;9088;55.674;13.354;2023-05-09T13:13:15;1.70;;;1.70;;
17925;SDS011;9088;55.674;13.354;2023-05-09T13:15:43;1.60;;;1.60;;
17925;SDS011;9088;55.674;13.354;2023-05-09T13:18:10;1.70;;;1.70;;
17925;SDS011;9088;55.674;13.354;2023-05-09T13:20:37;1.60;;;1.60;;
17925;SDS011;9088;55.674;13.354;2023-05-09T13:23:05;1.77;;;1.77;;
17925;SDS011;9088;55.674;13.354;2023-05-09T13:25:33;1.70;;;1.70;;
17925;SDS011;9088;55.674;13.354;2023-05-09T13:28:00;1.63;;;1.63;;
17925;SDS011;9088;55.674;13.354;2023-05-09T13:30:27;1.70;;;1.70;;
17925;SDS011;9088;55.674;13.354;2023-05-09T13:32:54;1.70;;;1.70;;
17925;SDS011;9088;55.674;13.354;2023-05-09T13:35:21;1.60;;;1.60;;
17925;SDS011;9088;55.674;13.354;2023-05-09T13:37:48;1.80;;;1.80;;
17925;SDS011;9088;55.674;13.354;2023-05-09T13:40:16;1.60;;;1.60;;
17925;SDS011;9088;55.674;13.354;2023-05-09T13:42:44;1.50;;;1.50;;
17925;SDS011;9088;55.674;13.354;2023-05-09T13:45:12;1.77;;;1.77;;
17925;SDS011;9088;55.674;13.354;2023-05-09T13:47:40;1.70;;;1.70;;
17925;SDS011;9088;55.674;13.354;2023-05-09T13:50:07;1.70;;;1.70;;
17925;SDS011;9088;55.674;13.354;2023-05-09T13:52:34;1.70;;;1.70;;
17925;SDS011;9088;55.674;13.354;2023-05-09T13:55:01;1.60;;;1.60;;
17925;SDS011;9088;55.674;13.354;2023-05-09T13:57:28;1.67;;;1.67;;
17925;SDS011;9088;55.674;13.354;2023-05-09T13:59:56;1.57;;;1.57;;
17925;SDS011;9088;55.674;13.354;2023-05-09T14:02:23;1.60;;;1.60;;
17925;SDS011;9088;55.674;13.354;2023-05-09T14:04:50;1.60;;;1.60;;
17925;SDS011;9088;55.674;13.354;2023-05-09T14:07:18;1.70;;;1.70;;
17925;SDS011;9088;55.674;13.354;2023-05-09T14:09:45;1.70;;;1.70;;
17925;SDS011;9088;55.674;13.354;2023-05-09T14:12:13;1.80;;;1.80;;
17925;SDS011;9088;55.674;13.354;2023-05-09T14:14:40;1.70;;;1.70;;
17925;SDS011;9088;55.674;13.354;2023-05-09T14:17:08;1.70;;;1.70;;
17925;SDS011;9088;55.674;13.354;2023-05-09T14:19:36;1.70;;;1.70;;
17925;SDS011;9088;55.674;13.354;2023-05-09T14:22:03;1.80;;;1.80;;
17925;SDS011;9088;55.674;13.354;2023-05-09T14:24:30;1.80;;;1.80;;
17925;SDS011;9088;55.674;13.354;2023-05-09T14:26:57;1.77;;;1.77;;
17925;SDS011;9088;55.674;13.354;2023-05-09T14:29:24;1.60;;;1.60;;
17925;SDS011;9088;55.674;13.354;2023-05-09T14:31:51;1.87;;;1.87;;
17925;SDS011;9088;55.674;13.354;2023-05-09T14:34:20;1.80;;;1.80;;
17925;SDS011;9088;55.674;13.354;2023-05-09T14:36:47;1.80;;;1.80;;
17925;SDS011;9088;55.674;13.354;2023-05-09T14:39:14;1.90;;;1.90;;
17925;SDS011;9088;55.674;13.354;2023-05-09T14:41:41;1.83;;;1.83;;
17925;SDS011;9088;55.674;13.354;2023-05-09T14:44:09;1.97;;;1.90;;
17925;SDS011;9088;55.674;13.354;2023-05-09T14:46:36;2.00;;;1.90;;
17925;SDS011;9088;55.674;13.354;2023-05-09T14:49:03;1.97;;;1.90;;
17925;SDS011;9088;55.674;13.354;2023-05-09T14:51:32;2.10;;;2.00;;
17925;SDS011;9088;55.674;13.354;2023-05-09T14:53:59;1.73;;;1.73;;
17925;SDS011;9088;55.674;13.354;2023-05-09T14:56:27;1.80;;;1.80;;
17925;SDS011;9088;55.674;13.354;2023-05-09T14:58:54;1.80;;;1.80;;
17925;SDS011;9088;55.674;13.354;2023-05-09T15:01:21;1.83;;;1.83;;